Flight Track Log - Related Links

Times and Time Zones

All times are in EDT time to prevent confusion due to time zone crossing. See the EGF3676 flight status page for this flight to view local times or setup timezone preferences in your user account.

Time Position Orientation Groundspeed Altitude Reporting Facility
EDT Latitude Longitude Course Direction KTS MPH feet Rate Location/Type
Sun 05:37:05 PM 39.8333 -104.7500 248° West 187 215 6,900  Level Denver TRACON
Sun 05:38:00 PM 39.7674 -104.9142 250° West  Level FlightAware Approximate
Sun 05:38:11 PM 39.8167 -104.8500 258° West 280 322 8,900  Level Denver TRACON
Sun 05:39:00 PM 39.7309 -105.0406 247° West  Level FlightAware Approximate
Sun 05:39:05 PM 39.7833 -104.9333 243° Southwest 289 333 11,200  Level Denver TRACON
Sun 05:40:00 PM 39.6897 -105.1644 247° West  Level FlightAware Approximate
Sun 05:40:07 PM 39.7581 -105.0511 254° West 317 365 13,100  Level Denver Center
Sun 05:41:00 PM 39.6525 -105.2902 252° West  Level FlightAware Approximate
Sun 05:41:09 PM 39.7169 -105.1647 245° Southwest 349 402 14,900  Level Denver Center
Sun 05:42:00 PM 39.6145 -105.4156 248° West  Level FlightAware Approximate
Sun 05:42:11 PM 39.6736 -105.2833 245° Southwest 361 415 16,900  Level Denver Center
Sun 05:43:13 PM 39.6261 -105.4158 245° Southwest 378 435 18,700 1,756 Climbing Denver Center
Sun 05:44:14 PM 39.5825 -105.5386 245° Southwest 382 440 20,500 1,659 Climbing Denver Center
Sun 05:45:16 PM 39.5344 -105.6742 245° Southwest 387 445 22,100 1,065 Climbing Denver Center
Sun 05:46:18 PM 39.4947 -105.8181 250° West 408 470 22,700 823 Climbing Denver Center
Sun 05:47:20 PM 39.4606 -105.9531 252° West 415 478 23,800 1,016 Climbing Denver Center
Sun 05:48:22 PM 39.4186 -106.0997 250° West 428 493 24,800 1,016 Climbing Denver Center
Sun 05:49:24 PM 39.3736 -106.2608 250° West 434 499 25,900 1,016 Climbing Denver Center
Sun 05:50:26 PM 39.3328 -106.4006 249° West 435 501 26,900 1,268 Climbing Denver Center
Sun 05:51:27 PM 39.2872 -106.5650 250° West 435 501 28,500 1,500 Climbing Denver Center
Sun 05:52:30 PM 39.2478 -106.6978 249° West 418 481 30,000 1,258 Climbing Denver Center
Sun 05:53:31 PM 39.1725 -106.8306 234° Southwest 412 474 31,100 1,005 Climbing Denver Center
Sun 05:55:00 PM 39.0661 -106.9788 232° Southwest  Level FlightAware Approximate
Sun 05:55:35 PM 39.0339 -107.0506 232° Southwest 412 474 33,100  Level Denver Center
Sun 05:56:36 PM 38.9533 -107.1786 231° Southwest 413 475 34,100 878 Climbing Denver Center
Sun 05:57:38 PM 38.8819 -107.2894 230° Southwest 418 481 34,900 919 Climbing Denver Center
Sun 05:58:40 PM 38.8025 -107.4133 231° Southwest 407 468 36,000 532 Climbing Denver Center
Sun 05:59:42 PM 38.7333 -107.5231 231° Southwest 411 473 36,000  Level Denver Center
Sun 06:00:43 PM 38.6475 -107.6547 230° Southwest 425 489 36,000  Level Denver Center
Sun 06:01:45 PM 38.5744 -107.7692 231° Southwest 431 496 36,000  Level Denver Center
Sun 06:02:47 PM 38.5006 -107.8831 230° Southwest 434 499 36,000  Level Denver Center
Sun 06:03:49 PM 38.4144 -108.0147 230° Southwest 432 497 36,000  Level Denver Center
Sun 06:04:51 PM 38.3411 -108.1281 230° Southwest 432 497 36,000  Level Denver Center
Sun 06:05:53 PM 38.2558 -108.2592 230° Southwest 431 496 36,000  Level Denver Center
Sun 06:06:55 PM 38.1814 -108.3689 229° Southwest 427 491 36,000  Level Denver Center
Sun 06:07:56 PM 38.0956 -108.5019 231° Southwest 431 496 36,000  Level Denver Center
Sun 06:08:58 PM 38.0136 -108.6231 229° Southwest 429 494 36,000  Level Denver Center
Sun 06:10:00 PM 37.9392 -108.7333 229° Southwest 430 495 36,000  Level Denver Center
Sun 06:11:02 PM 37.8650 -108.8472 231° Southwest 435 501 36,000  Level Denver Center
Sun 06:12:04 PM 37.7864 -108.9797 233° Southwest 424 488 36,000  Level Denver Center
Sun 06:13:06 PM 37.7319 -109.1042 241° Southwest 423 487 36,000  Level Denver Center
Sun 06:14:08 PM 37.6672 -109.2517 241° Southwest 427 491 36,000  Level Denver Center
Sun 06:15:10 PM 37.6114 -109.3742 240° Southwest 423 487 36,000  Level Denver Center
Sun 06:16:12 PM 37.5461 -109.5197 241° Southwest 426 490 36,000  Level Denver Center
Sun 06:17:13 PM 37.4911 -109.6428 241° Southwest 423 487 36,000  Level Denver Center
Sun 06:18:15 PM 37.4261 -109.7872 240° Southwest 424 488 36,000  Level Denver Center
Sun 06:19:17 PM 37.3706 -109.9078 240° Southwest 419 482 36,000  Level Denver Center
Sun 06:20:19 PM 37.3067 -110.0497 241° Southwest 420 483 36,000  Level Denver Center
Sun 06:21:21 PM 37.2517 -110.1708 240° Southwest 419 482 36,000  Level Denver Center
Sun 06:22:23 PM 37.1956 -110.2917 240° Southwest 419 482 36,000  Level Denver Center
Sun 06:23:25 PM 37.1367 -110.4197 240° Southwest 424 488 36,000  Level Denver Center
Sun 06:24:27 PM 37.0669 -110.5708 240° Southwest 418 481 36,000  Level Denver Center
Sun 06:25:29 PM 37.0078 -110.6983 240° Southwest 423 487 36,000  Level Denver Center
Sun 06:26:30 PM 36.9486 -110.8242 240° Southwest 421 484 36,000  Level Denver Center
Sun 06:27:32 PM 36.9008 -110.9253 239° Southwest 422 486 36,000  Level Denver Center
Sun 06:28:34 PM 36.8308 -111.0769 240° Southwest 417 480 36,000  Level Denver Center
Sun 06:29:36 PM 36.7747 -111.1992 240° Southwest 410 472 36,000  Level Denver Center
Sun 06:30:38 PM 36.7039 -111.3469 239° Southwest 411 473 36,000  Level Denver Center
Sun 06:31:40 PM 36.6450 -111.4694 239° Southwest 412 474 36,000  Level Denver Center
Sun 06:32:42 PM 36.5856 -111.5942 239° Southwest 415 478 36,000  Level Denver Center
Sun 06:33:43 PM 36.5256 -111.7167 239° Southwest 415 478 36,000  Level Denver Center
Sun 06:35:26 PM 36.4333 -111.9092 239° Southwest 402 463 36,000  Level Los Angeles Center
Sun 06:36:27 PM 36.3617 -112.0550 239° Southwest 409 471 36,000  Level Los Angeles Center
Sun 06:37:30 PM 36.3022 -112.1794 239° Southwest 415 478 36,000  Level Los Angeles Center
Sun 06:38:32 PM 36.2422 -112.3031 239° Southwest 418 481 36,000  Level Los Angeles Center
Sun 06:39:36 PM 36.1808 -112.4269 238° Southwest 421 484 36,000  Level Los Angeles Center
Sun 06:40:36 PM 36.1183 -112.5531 238° Southwest 427 491 36,000  Level Los Angeles Center
Sun 06:41:38 PM 36.0575 -112.6764 239° Southwest 421 484 36,000  Level Los Angeles Center
Sun 06:43:00 PM 35.9769 -112.8347 238° Southwest  Level FlightAware Approximate
Sun 06:43:42 PM 35.9344 -112.9261 238° Southwest 421 484 36,000  Level Los Angeles Center
Sun 06:45:00 PM 35.8567 -113.0757 237° Southwest  Level FlightAware Approximate
Sun 06:45:46 PM 35.8011 -113.1936 237° Southwest 421 484 36,000  Level Los Angeles Center
Sun 06:46:48 PM 35.7397 -113.3158 238° Southwest 423 487 36,000  Level Los Angeles Center
Sun 06:48:00 PM 35.6638 -113.4501 235° Southwest  Level FlightAware Approximate
Sun 06:48:53 PM 35.6058 -113.5886 235° Southwest 430 495 36,000  Level Los Angeles Center
Sun 06:49:55 PM 35.5544 -113.7194 244° Southwest 431 496 36,000  Level Los Angeles Center
Sun 06:50:57 PM 35.5008 -113.8497 243° Southwest 431 496 36,000  Level Los Angeles Center
Sun 06:51:59 PM 35.4383 -114.0014 243° Southwest 430 495 36,000  Level Los Angeles Center
Sun 06:53:14 PM 35.3747 -114.1583 244° Southwest 427 491 36,000  Level Los Angeles Center
Sun 06:54:16 PM 35.3200 -114.2906 243° Southwest 432 497 36,000  Level Los Angeles Center
Sun 06:55:18 PM 35.2667 -114.4200 243° Southwest 430 495 36,000  Level Los Angeles Center
Sun 06:56:20 PM 35.2139 -114.5483 243° Southwest 425 489 36,000  Level Los Angeles Center
Sun 06:58:24 PM 35.1022 -114.8150 243° Southwest 433 498 36,000  Level Los Angeles Center
Sun 07:00:28 PM 34.9800 -115.1053 243° Southwest 437 503 36,000  Level Los Angeles Center
Sun 07:01:30 PM 34.9244 -115.2350 242° Southwest 433 498 36,000  Level Los Angeles Center
Sun 07:02:32 PM 34.8697 -115.3647 243° Southwest 432 497 36,000  Level Los Angeles Center
Sun 07:03:34 PM 34.8139 -115.4936 242° Southwest 431 496 36,000  Level Los Angeles Center
Sun 07:04:36 PM 34.7508 -115.6447 243° Southwest 436 502 36,000  Level Los Angeles Center
Sun 07:05:38 PM 34.6947 -115.7753 242° Southwest 437 503 36,000  Level Los Angeles Center
Sun 07:06:40 PM 34.6378 -115.9050 242° Southwest 437 503 36,000 -581 Level Los Angeles Center
Sun 07:07:42 PM 34.5817 -116.0367 243° Southwest 438 504 34,800 -1,597 Descending Los Angeles Center
Sun 07:08:44 PM 34.5239 -116.1664 242° Southwest 437 503 32,700 -2,032 Descending Los Angeles Center
Sun 07:09:46 PM 34.4656 -116.3014 242° Southwest 447 514 30,600 -2,081 Descending Los Angeles Center
Sun 07:10:48 PM 34.4064 -116.4367 242° Southwest 452 520 28,400 -2,323 Descending Los Angeles Center
Sun 07:11:50 PM 34.3372 -116.5931 242° Southwest 440 506 25,800 -2,177 Descending Los Angeles Center
Sun 07:12:52 PM 34.2806 -116.7208 242° Southwest 433 498 23,900 -1,839 Descending Los Angeles Center
Sun 07:13:54 PM 34.2231 -116.8497 242° Southwest 434 499 22,000 -1,839 Descending Los Angeles Center
Sun 07:14:56 PM 34.1694 -116.9717 242° Southwest 415 478 20,100 -1,452 Descending Los Angeles Center
Sun 07:15:58 PM 34.1186 -117.0839 241° Southwest 404 465 19,000 -846 Descending Los Angeles Center
Sun 07:16:14 PM 34.1000 -117.1333 246° West 390 449 19,000 -395 Level Southern California TRACON
Sun 07:17:14 PM 34.0500 -117.2500 243° Southwest 396 456 18,500 -1,200 Descending Southern California TRACON
Sun 07:19:04 PM 34.0275 -117.4739 263° West 366 421 15,600 -1,567 Descending Los Angeles Center
Sun 07:20:14 PM 34.0167 -117.6000 264° West 384 442 13,800 -1,368 Descending Southern California TRACON
Sun 07:21:20 PM 34.0000 -117.7000 259° West 259 298 12,500 -1,041 Descending Southern California TRACON
Sun 07:22:15 PM 34.0000 -117.7667 270° West 272 313 11,700 -700 Descending Southern California TRACON
Sun 07:23:20 PM 33.9833 -117.8833 260° West 279 321 11,100 -500 Descending Southern California TRACON
Sun 07:24:15 PM 33.9833 -117.9667 270° West 283 326 10,700 -470 Descending Southern California TRACON
Sun 07:25:15 PM 33.9667 -118.0500 256° West 282 325 10,200 -350 Descending Southern California TRACON
Sun 07:26:15 PM 33.9667 -118.1500 270° West 285 328 10,000 -381 Descending Southern California TRACON
Sun 07:27:21 PM 33.9500 -118.2500 259° West 278 320 9,400 -709 Descending Southern California TRACON
Sun 07:28:22 PM 33.9683 -118.3300 285° West 286 329 8,500 -683 Descending Los Angeles Center
Sun 07:29:24 PM 34.0036 -118.4342 292° West 284 327 8,000 -581 Descending Los Angeles Center
Sun 07:30:26 PM 33.9975 -118.5306 266° West 277 319 7,300 -1,065 Descending Los Angeles Center
Sun 07:31:28 PM 33.9883 -118.6219 263° West 274 315 5,800 -1,500 Descending Los Angeles Center
Sun 07:32:30 PM 33.9739 -118.7133 259° West 263 303 4,200 -1,016 Descending Los Angeles Center
Sun 07:33:32 PM 33.9364 -118.6983 162° South 195 224 3,700 -290 Descending Los Angeles Center
Sun 07:34:34 PM 33.9286 -118.6333 98° East 184 212 3,600 -581 Descending Los Angeles Center
Sun 07:35:36 PM 33.9353 -118.5728 82° East 182 209 2,500 -968 Descending Los Angeles Center
Sun 07:36:38 PM 33.9408 -118.5142 83° East 176 203 1,600 -871 Descending Los Angeles Center
Sun 07:37:40 PM 33.9458 -118.4658 83° East 134 154 700 -726 Descending Los Angeles Center
Sun 07:38:42 PM 33.9494 -118.4264 84° East 131 151 100 -581 Descending Los Angeles Center

Login

Don't have an account? Register now (free) for customized features, flight alerts, and more!